Time;durP1;ratioP1;P1;durP2;ratioP2;P2;SDS_P1;SDS_P2;PMS_P1;PMS_P2;Temp;Humidity;BMP_temperature;BMP_pressure;BME280_temperature;BME280_humidity;BME280_pressure;Samples;Min_cycle;Max_cycle;Signal;HPM_P1;HPM_P2
2022/03/13 00:00:12;;;;;;;;;12.00;10.75;;;;;9.41;70.76;100783.25;5079127;27;45385;-54
2022/03/13 00:02:40;;;;;;;;;10.00;9.00;;;;;9.41;71.32;100787.72;5078619;27;46320;-55
2022/03/13 00:05:11;;;;;;;;;13.25;9.00;;;;;9.41;71.51;100787.72;5078590;27;45425;-55
2022/03/13 00:07:37;;;;;;;;;13.00;12.00;;;;;9.39;70.70;100787.00;5078602;27;45275;-55
2022/03/13 00:10:03;;;;;;;;;10.00;9.75;;;;;9.40;71.22;100789.53;5078769;27;45355;-54
2022/03/13 00:12:32;;;;;;;;;10.25;10.00;;;;;9.43;71.25;100791.06;5078351;27;46219;-56
2022/03/13 00:14:59;;;;;;;;;15.50;13.00;;;;;9.46;70.60;100796.09;5078598;27;45334;-55
2022/03/13 00:17:29;;;;;;;;;9.00;9.00;;;;;9.50;70.82;100792.19;5078312;27;45403;-52
2022/03/13 00:20:00;;;;;;;;;7.50;7.50;;;;;9.50;70.91;100792.19;5078954;27;45373;-54
2022/03/13 00:22:25;;;;;;;;;12.00;8.75;;;;;9.49;70.65;100791.34;5077600;27;46464;-54
2022/03/13 00:24:50;;;;;;;;;13.50;10.00;;;;;9.53;69.91;100793.75;5078103;27;45302;-52
2022/03/13 00:27:16;;;;;;;;;11.50;9.25;;;;;9.55;70.71;100789.13;5078533;27;45382;-56
2022/03/13 00:29:41;;;;;;;;;15.00;10.50;;;;;9.56;69.74;100791.63;5078630;27;45354;-54
2022/03/13 00:32:08;;;;;;;;;14.00;10.50;;;;;9.60;70.02;100792.19;5078361;27;45932;-53
2022/03/13 00:34:34;;;;;;;;;9.33;6.00;;;;;9.61;69.92;100791.22;5078082;27;45385;-53
2022/03/13 00:36:59;;;;;;;;;15.50;10.25;;;;;9.63;69.50;100799.88;5078255;27;45420;-55
2022/03/13 00:39:25;;;;;;;;;10.75;10.75;;;;;9.57;69.67;100781.88;5078455;28;45385;-54
2022/03/13 00:41:51;;;;;;;;;13.00;10.00;;;;;9.66;69.77;100787.16;5077912;27;47256;-53
2022/03/13 00:44:16;;;;;;;;;10.00;7.00;;;;;9.68;69.41;100787.03;5077714;27;45405;-52
2022/03/13 00:46:42;;;;;;;;;14.50;10.50;;;;;9.69;69.43;100778.94;5078013;27;45330;-54
2022/03/13 00:49:08;;;;;;;;;10.50;6.00;;;;;9.65;69.18;100774.88;5078225;27;45468;-53
2022/03/13 00:51:34;;;;;;;;;10.00;6.25;;;;;9.71;68.80;100784.94;5077702;27;46120;-52
2022/03/13 00:53:59;;;;;;;;;5.00;5.00;;;;;9.71;68.53;100779.63;5078018;27;45332;-53
2022/03/13 00:56:24;;;;;;;;;6.67;5.00;;;;;9.75;68.23;100781.00;5077843;27;45441;-54
2022/03/13 00:58:50;;;;;;;;;7.00;5.33;;;;;9.77;68.76;100774.72;5078096;27;45423;-53
2022/03/13 01:01:16;;;;;;;;;6.67;6.67;;;;;9.77;67.81;100782.69;5077804;27;45391;-51
2022/03/13 01:03:41;;;;;;;;;6.33;6.00;;;;;9.79;67.94;100770.94;5077842;27;45339;-55
2022/03/13 01:06:08;;;;;;;;;11.67;6.33;;;;;9.81;67.80;100771.63;5077823;27;45687;-54
2022/03/13 01:08:34;;;;;;;;;6.33;6.00;;;;;9.82;67.90;100776.00;5077875;27;45322;-53
2022/03/13 01:11:00;;;;;;;;;9.33;5.67;;;;;9.81;67.59;100770.78;5077696;27;46238;-53
2022/03/13 01:13:26;;;;;;;;;5.00;5.00;;;;;9.82;67.28;100765.34;5077540;27;45326;-54
2022/03/13 01:16:00;;;;;;;;;6.67;5.00;;;;;9.73;68.05;100742.28;5077741;27;45399;-55
2022/03/13 01:18:25;;;;;;;;;7.00;5.33;;;;;9.86;67.61;100763.22;5077955;27;45388;-55
2022/03/13 01:20:51;;;;;;;;;8.33;5.67;;;;;9.86;68.01;100760.56;5010754;27;45427;-53
2022/03/13 01:23:17;;;;;;;;;5.00;5.00;;;;;9.88;67.49;100761.28;4994411;28;45327;-55
2022/03/13 01:25:42;;;;;;;;;6.00;5.00;;;;;9.84;67.27;100749.25;4994672;28;45464;-53
2022/03/13 01:28:08;;;;;;;;;10.00;6.33;;;;;9.88;67.35;100742.69;4994584;28;45429;-54
2022/03/13 01:30:33;;;;;;;;;9.67;6.67;;;;;9.88;67.55;100758.63;4994283;28;46984;-55
2022/03/13 01:32:59;;;;;;;;;5.33;5.33;;;;;9.90;67.20;100754.00;4994203;28;45377;-53
2022/03/13 01:35:25;;;;;;;;;5.00;5.00;;;;;9.88;67.04;100732.06;4993184;28;45353;-54
2022/03/13 01:37:52;;;;;;;;;6.00;6.00;;;;;9.81;67.05;100723.81;4994552;28;45401;-56
2022/03/13 01:40:20;;;;;;;;;7.00;5.00;;;;;9.93;67.33;100735.97;4994200;28;45357;-54
2022/03/13 01:42:47;;;;;;;;;6.00;5.00;;;;;9.96;66.66;100732.19;4994171;28;45387;-55
2022/03/13 01:45:16;;;;;;;;;6.00;5.33;;;;;9.87;66.75;100717.09;4994116;28;45488;-55
2022/03/13 01:47:42;;;;;;;;;7.00;5.00;;;;;9.84;66.43;100712.06;4994436;28;45264;-56
2022/03/13 01:50:09;;;;;;;;;6.00;6.00;;;;;9.91;67.01;100723.81;4994082;28;46036;-54
2022/03/13 01:52:37;;;;;;;;;10.00;6.67;;;;;9.92;67.09;100728.97;4993908;28;45507;-56
2022/03/13 01:55:04;;;;;;;;;9.33;6.00;;;;;9.90;66.58;100728.28;4994279;28;45392;-53
2022/03/13 01:57:29;;;;;;;;;13.67;6.00;;;;;9.92;66.77;100728.97;4994478;28;45402;-54
2022/03/13 02:00:00;;;;;;;;;5.00;5.00;;;;;9.92;66.93;100717.50;4993874;28;47177;-53
2022/03/13 02:02:29;;;;;;;;;6.00;5.00;;;;;9.92;66.95;100720.16;4994141;28;45377;-55
2022/03/13 02:04:56;;;;;;;;;10.00;6.00;;;;;9.90;66.58;100716.81;4993972;28;45405;-54
2022/03/13 02:07:23;;;;;;;;;9.67;6.00;;;;;9.89;66.74;100717.78;4993954;28;45341;-56
2022/03/13 02:09:49;;;;;;;;;9.00;9.00;;;;;9.87;66.51;100714.44;4993733;28;46868;-50
2022/03/13 02:12:18;;;;;;;;;5.67;5.67;;;;;9.69;67.35;100695.72;4993624;28;45677;-56
2022/03/13 02:14:43;;;;;;;;;3.00;3.00;;;;;9.73;67.50;100707.75;4994071;28;45251;-53
2022/03/13 02:17:09;;;;;;;;;8.50;6.50;;;;;9.67;67.58;100703.00;4994127;28;45329;-51
2022/03/13 02:19:34;;;;;;;;;3.00;3.00;;;;;9.59;67.65;100695.75;4994048;28;45974;-51
2022/03/13 02:21:59;;;;;;;;;5.00;5.00;;;;;9.55;67.89;100693.50;4993668;28;45323;-55
2022/03/13 02:24:26;;;;;;;;;9.33;6.67;;;;;9.49;67.71;100689.63;4993698;28;45941;-56
2022/03/13 02:27:09;;;;;;;;;7.50;5.75;;;;;9.43;67.91;100688.34;4994159;28;45445;-54
2022/03/13 02:29:35;;;;;;;;;7.50;6.00;;;;;9.41;68.07;100689.47;4993682;28;46271;-54
2022/03/13 02:32:01;;;;;;;;;9.50;9.50;;;;;9.35;68.00;100684.72;4993617;28;45371;-54
2022/03/13 02:34:28;;;;;;;;;6.50;6.25;;;;;9.33;67.86;100678.72;4994333;28;45312;-53
2022/03/13 02:37:02;;;;;;;;;9.75;8.25;;;;;9.29;67.73;100674.66;4992817;28;45379;-54
2022/03/13 02:39:28;;;;;;;;;11.00;8.50;;;;;9.24;68.79;100670.63;4994002;28;45350;-56
2022/03/13 02:41:54;;;;;;;;;9.00;9.00;;;;;9.12;68.57;100655.81;4993893;28;45431;-53
2022/03/13 02:44:19;;;;;;;;;9.00;6.00;;;;;9.15;69.09;100670.63;4993592;28;45358;-55
2022/03/13 02:46:48;;;;;;;;;11.00;6.50;;;;;9.13;68.12;100664.59;4995745;28;45496;-54
2022/03/13 02:49:15;;;;;;;;;8.50;6.75;;;;;9.08;69.22;100662.38;4996338;28;47176;-53
2022/03/13 02:51:41;;;;;;;;;7.00;7.00;;;;;9.06;69.14;100666.13;4996270;28;45443;-53
2022/03/13 02:54:07;;;;;;;;;8.50;8.50;;;;;9.02;68.72;100664.72;4996223;28;45483;-54
2022/03/13 02:56:32;;;;;;;;;14.00;7.25;;;;;8.96;68.90;100656.34;4995086;28;45339;-54
2022/03/13 02:58:58;;;;;;;;;12.25;8.50;;;;;8.95;68.98;100664.47;4996147;28;47455;-52
2022/03/13 03:01:23;;;;;;;;;7.75;6.00;;;;;8.87;68.69;100654.53;4996326;28;45357;-53
2022/03/13 03:03:49;;;;;;;;;7.50;6.75;;;;;8.91;68.49;100655.94;4996466;28;45369;-53
2022/03/13 03:06:15;;;;;;;;;10.75;8.50;;;;;8.88;68.81;100665.97;4996460;28;45391;-54
2022/03/13 03:08:40;;;;;;;;;10.25;9.00;;;;;8.86;69.50;100662.63;4996028;28;46147;-54
2022/03/13 03:11:06;;;;;;;;;16.00;13.00;;;;;8.84;68.45;100670.72;4996075;28;45527;-55
2022/03/13 03:13:32;;;;;;;;;13.00;10.00;;;;;8.80;69.16;100661.34;4996331;28;45372;-53
2022/03/13 03:15:58;;;;;;;;;10.25;9.25;;;;;8.68;68.75;100646.53;4996473;28;45310;-51
2022/03/13 03:18:23;;;;;;;;;12.00;10.25;;;;;8.76;69.49;100659.94;4995744;28;46007;-55
2022/03/13 03:20:49;;;;;;;;;15.00;10.50;;;;;8.65;69.25;100649.47;4996320;28;45419;-52
2022/03/13 03:23:15;;;;;;;;;12.50;8.00;;;;;8.62;68.36;100647.09;4994842;28;45273;-52
2022/03/13 03:25:41;;;;;;;;;11.00;10.25;;;;;8.71;69.50;100659.53;4996302;28;45428;-53
2022/03/13 03:28:06;;;;;;;;;9.00;9.00;;;;;8.66;69.20;100649.31;4995911;28;45294;-52
2022/03/13 03:30:32;;;;;;;;;9.50;7.50;;;;;8.67;69.61;100658.94;4995988;28;45593;-54
2022/03/13 03:33:02;;;;;;;;;17.50;10.25;;;;;8.65;69.09;100660.91;4996064;28;45398;-53
2022/03/13 03:35:27;;;;;;;;;11.75;9.75;;;;;8.61;68.68;100656.88;4996030;27;45612;-52
2022/03/13 03:37:54;;;;;;;;;14.50;12.50;;;;;8.60;69.38;100657.84;4995843;28;45344;-52
2022/03/13 03:40:24;;;;;;;;;21.75;9.25;;;;;8.61;68.93;100658.69;4995727;28;45358;-53
2022/03/13 03:42:50;;;;;;;;;11.75;9.00;;;;;8.58;68.35;100657.13;4996000;28;45504;-54
2022/03/13 03:45:19;;;;;;;;;11.50;10.50;;;;;8.58;69.33;100651.81;4995791;28;45271;-52
2022/03/13 03:47:45;;;;;;;;;7.75;7.75;;;;;8.56;69.02;100652.94;4995619;28;45384;-52
2022/03/13 03:50:11;;;;;;;;;14.25;12.75;;;;;8.54;68.49;100652.22;4995634;28;45315;-52
2022/03/13 03:52:36;;;;;;;;;14.00;11.00;;;;;8.53;69.94;100653.22;4995795;28;45344;-53
2022/03/13 03:55:02;;;;;;;;;17.25;14.75;;;;;8.47;68.77;100638.69;4995610;28;45343;-56
2022/03/13 03:57:27;;;;;;;;;6.25;6.25;;;;;8.53;69.74;100647.91;4994568;28;46344;-53
2022/03/13 03:59:53;;;;;;;;;16.50;14.25;;;;;8.50;68.59;100647.19;4995456;28;45262;-52
2022/03/13 04:02:19;;;;;;;;;15.75;14.75;;;;;8.50;68.79;100654.31;4995458;28;45297;-50
2022/03/13 04:04:45;;;;;;;;;11.25;10.00;;;;;8.51;69.25;100650.69;4995758;28;45448;-53
2022/03/13 04:07:11;;;;;;;;;18.75;12.25;;;;;8.46;68.91;100640.47;4995371;28;46123;-52
2022/03/13 04:09:36;;;;;;;;;15.25;13.75;;;;;8.46;69.20;100643.13;4995149;28;45516;-51
2022/03/13 04:12:05;;;;;;;;;10.75;10.00;;;;;8.47;69.29;100639.53;4995584;28;45450;-54
2022/03/13 04:14:31;;;;;;;;;12.00;9.00;;;;;8.50;68.92;100647.19;4995398;28;45337;-53
2022/03/13 04:16:56;;;;;;;;;13.00;10.00;;;;;8.51;68.54;100648.03;4995181;28;45246;-51
2022/03/13 04:19:22;;;;;;;;;10.50;9.00;;;;;8.53;68.50;100642.59;4996645;28;45374;-54
2022/03/13 04:21:47;;;;;;;;;14.00;10.50;;;;;8.53;68.94;100654.03;4995327;28;45242;-52
2022/03/13 04:24:13;;;;;;;;;10.50;9.00;;;;;8.56;68.59;100659.09;4995491;28;45234;-56
2022/03/13 04:26:40;;;;;;;;;14.50;10.75;;;;;8.60;68.29;100659.66;4995002;28;46072;-52
2022/03/13 04:29:07;;;;;;;;;9.00;7.00;;;;;8.56;67.63;100651.13;4995386;28;45457;-52
2022/03/13 04:31:37;;;;;;;;;12.50;7.00;;;;;8.62;67.89;100653.22;4995157;28;45296;-52
2022/03/13 04:34:02;;;;;;;;;9.75;8.75;;;;;8.66;68.30;100659.94;4995306;28;45247;-53
2022/03/13 04:36:29;;;;;;;;;10.25;7.00;;;;;8.66;67.77;100657.28;4995056;28;46091;-52
2022/03/13 04:38:54;;;;;;;;;9.75;7.50;;;;;8.72;67.72;100658.53;4993740;28;45446;-51
2022/03/13 04:41:20;;;;;;;;;8.50;7.00;;;;;8.74;67.40;100660.09;4995290;28;45217;-50
2022/03/13 04:43:46;;;;;;;;;10.25;8.50;;;;;8.77;66.90;100666.13;4995058;28;45282;-52
2022/03/13 04:46:11;;;;;;;;;8.25;5.75;;;;;8.78;67.59;100651.88;4994876;28;45335;-55
2022/03/13 04:48:37;;;;;;;;;9.25;6.50;;;;;8.81;66.65;100656.91;4994940;28;45267;-54
2022/03/13 04:51:02;;;;;;;;;6.75;6.00;;;;;8.80;66.21;100653.38;4995112;28;45386;-54
2022/03/13 04:53:29;;;;;;;;;7.25;7.25;;;;;8.84;66.75;100665.41;4995251;28;45402;-53
2022/03/13 04:55:56;;;;;;;;;10.50;6.00;;;;;8.82;66.99;100654.09;4994468;28;46955;-53
2022/03/13 04:58:21;;;;;;;;;9.75;6.25;;;;;8.91;66.48;100660.41;4994858;28;45334;-55
2022/03/13 05:00:47;;;;;;;;;6.00;6.00;;;;;8.91;66.10;100660.41;4994856;28;45225;-54
2022/03/13 05:03:13;;;;;;;;;7.00;6.00;;;;;8.87;65.72;100646.56;4995052;28;45372;-54
2022/03/13 05:05:40;;;;;;;;;6.75;5.50;;;;;8.92;65.89;100646.16;4994638;28;46054;-55
2022/03/13 05:08:14;;;;;;;;;6.00;5.00;;;;;8.94;66.36;100638.91;4994349;28;45419;-52
2022/03/13 05:10:40;;;;;;;;;9.25;6.00;;;;;8.90;65.31;100641.00;4994638;28;45252;-54
2022/03/13 05:13:08;;;;;;;;;7.25;7.00;;;;;8.97;65.94;100635.97;4994833;28;45427;-54
2022/03/13 05:15:34;;;;;;;;;4.75;4.75;;;;;8.95;65.83;100637.94;4994484;28;45424;-54
2022/03/13 05:18:01;;;;;;;;;5.00;5.00;;;;;8.79;65.96;100617.25;4994337;28;45359;-52
2022/03/13 05:20:28;;;;;;;;;10.50;7.50;;;;;8.90;66.06;100642.81;4994669;28;45272;-52
2022/03/13 05:22:54;;;;;;;;;6.75;5.00;;;;;8.84;65.64;100630.09;4994798;28;45141;-51
2022/03/13 05:25:23;;;;;;;;;5.75;5.75;;;;;8.79;65.30;100630.50;4994284;28;45441;-53
2022/03/13 05:27:48;;;;;;;;;4.75;3.75;;;;;8.83;65.22;100647.81;4995794;28;45445;-56
2022/03/13 05:30:13;;;;;;;;;2.00;2.00;;;;;8.79;65.40;100641.13;4994232;28;45383;-54
2022/03/13 05:32:39;;;;;;;;;5.00;4.00;;;;;8.80;66.24;100641.94;4994700;28;45318;-49
2022/03/13 05:35:05;;;;;;;;;6.00;5.00;;;;;8.78;65.55;100642.09;4994256;28;46112;-50
2022/03/13 05:37:30;;;;;;;;;4.00;4.00;;;;;8.78;65.71;100651.88;4994441;28;45779;-53
2022/03/13 05:39:56;;;;;;;;;10.00;6.25;;;;;8.74;66.23;100657.44;4994424;28;45459;-52
2022/03/13 05:42:24;;;;;;;;;10.00;5.00;;;;;8.74;65.47;100654.78;4994591;28;45334;-53
2022/03/13 05:44:51;;;;;;;;;4.00;4.00;;;;;8.71;65.35;100657.72;4994182;28;46050;-52
2022/03/13 05:47:18;;;;;;;;;9.00;3.00;;;;;8.68;65.99;100658.00;4994276;28;45518;-51
2022/03/13 05:49:44;;;;;;;;;3.75;2.25;;;;;8.65;66.10;100652.97;4994196;28;45415;-51
2022/03/13 05:52:14;;;;;;;;;6.00;5.00;;;;;8.65;65.73;100660.91;4994531;28;45366;-51
2022/03/13 05:54:40;;;;;;;;;5.00;5.00;;;;;8.62;65.69;100655.88;4993799;28;47297;-53
2022/03/13 05:57:09;;;;;;;;;5.00;5.00;;;;;8.61;66.01;100656.03;4994018;28;45485;-51
2022/03/13 05:59:35;;;;;;;;;9.00;5.00;;;;;8.48;65.75;100641.19;4994252;28;45353;-52
2022/03/13 06:02:02;;;;;;;;;6.00;4.25;;;;;8.59;65.77;100663.25;4992889;28;45573;-53
2022/03/13 06:04:28;;;;;;;;;6.00;6.00;;;;;8.60;65.70;100665.78;4993989;28;45503;-54
2022/03/13 06:06:54;;;;;;;;;4.00;4.00;;;;;8.64;65.32;100667.19;4993928;28;45348;-53
2022/03/13 06:09:19;;;;;;;;;12.00;5.75;;;;;8.65;65.49;100666.22;4994159;28;45239;-54
2022/03/13 06:11:44;;;;;;;;;8.00;5.00;;;;;8.69;65.86;100675.59;4992728;27;45332;-54
2022/03/13 06:14:10;;;;;;;;;5.25;4.00;;;;;8.71;65.86;100670.97;4993686;28;46144;-55
2022/03/13 06:16:35;;;;;;;;;5.00;3.00;;;;;8.74;65.72;100672.53;4993776;28;45449;-55
2022/03/13 06:19:00;;;;;;;;;2.75;2.00;;;;;8.75;64.39;100669.72;4993924;28;45356;-52
2022/03/13 06:21:26;;;;;;;;;4.50;3.00;;;;;8.72;64.88;100656.75;4995737;28;45276;-56
2022/03/13 06:23:51;;;;;;;;;3.25;2.75;;;;;8.79;64.98;100678.25;4996441;28;46470;-54
2022/03/13 06:26:17;;;;;;;;;3.00;3.00;;;;;8.81;65.21;100680.78;4996578;28;45413;-55
2022/03/13 06:28:42;;;;;;;;;4.50;4.00;;;;;8.83;65.23;100676.16;4995387;28;45737;-54
2022/03/13 06:31:08;;;;;;;;;9.25;5.50;;;;;8.86;64.81;100686.50;4996813;28;45396;-54
2022/03/13 06:33:34;;;;;;;;;4.00;2.00;;;;;8.85;64.79;100688.31;4996299;28;46082;-55
2022/03/13 06:35:59;;;;;;;;;3.50;3.50;;;;;8.75;65.09;100664.41;4996299;28;45390;-54
2022/03/13 06:38:25;;;;;;;;;4.75;4.75;;;;;8.74;64.39;100662.75;4996463;28;45381;-55
2022/03/13 06:40:51;;;;;;;;;5.25;5.25;;;;;8.89;64.32;100687.06;4996682;28;45296;-54
2022/03/13 06:43:17;;;;;;;;;2.00;2.00;;;;;8.90;64.26;100678.13;4996366;28;47042;-54
2022/03/13 06:45:42;;;;;;;;;6.50;3.00;;;;;8.87;64.07;100670.44;4996056;28;45228;-53
2022/03/13 06:48:08;;;;;;;;;2.33;2.33;;;;;8.94;64.12;100676.88;4996625;28;45361;-55
2022/03/13 06:50:33;;;;;;;;;4.00;2.00;;;;;9.07;63.98;100691.72;4996582;28;45500;-56
2022/03/13 06:52:59;;;;;;;;;8.00;5.00;;;;;9.12;63.86;100690.31;4996303;28;46314;-54
2022/03/13 06:55:25;;;;;;;;;6.00;4.75;;;;;9.14;63.78;100691.03;4996323;28;45502;-55
2022/03/13 06:57:51;;;;;;;;;8.00;3.67;;;;;9.15;63.49;100692.69;4996186;28;45389;-54
2022/03/13 07:00:17;;;;;;;;;4.00;4.00;;;;;9.11;63.17;100683.31;4996551;28;45452;-54
2022/03/13 07:02:43;;;;;;;;;5.00;3.33;;;;;9.21;63.29;100693.94;4996141;28;46674;-52
2022/03/13 07:05:08;;;;;;;;;7.67;4.33;;;;;9.27;63.28;100688.09;4996231;27;45430;-52
2022/03/13 07:07:34;;;;;;;;;5.67;5.00;;;;;9.34;63.68;100688.34;4996320;28;45509;-53
2022/03/13 07:09:59;;;;;;;;;9.00;6.00;;;;;9.41;62.85;100689.47;4996454;28;45402;-56
2022/03/13 07:12:25;;;;;;;;;6.67;5.00;;;;;9.48;62.27;100690.56;4997038;28;45829;-54
2022/03/13 07:14:57;;;;;;;;;3.00;3.00;;;;;9.47;62.30;100683.59;4995938;28;45347;-55
2022/03/13 07:17:23;;;;;;;;;2.00;2.00;;;;;9.56;61.91;100685.41;4996232;28;45437;-53
2022/03/13 07:19:49;;;;;;;;;5.00;2.00;;;;;9.62;61.49;100686.66;4996152;28;45780;-56
2022/03/13 07:22:15;;;;;;;;;5.33;2.67;;;;;9.70;61.63;100677.00;4996003;28;45336;-55
2022/03/13 07:24:42;;;;;;;;;5.33;3.67;;;;;9.87;61.12;100683.41;4994703;28;45384;-51
2022/03/13 07:27:08;;;;;;;;;3.00;3.00;;;;;9.94;61.27;100678.34;4995799;28;45721;-54
2022/03/13 07:29:34;;;;;;;;;2.33;2.33;;;;;10.02;60.35;100675.78;4996066;28;45414;-53
2022/03/13 07:31:59;;;;;;;;;2.67;2.67;;;;;10.04;60.28;100679.16;4994774;28;45965;-54
2022/03/13 07:34:26;;;;;;;;;2.67;2.67;;;;;10.03;60.74;100680.16;4995671;28;45309;-53
2022/03/13 07:36:52;;;;;;;;;3.00;3.00;;;;;10.02;60.78;100683.75;4995852;28;45389;-53
2022/03/13 07:39:19;;;;;;;;;2.00;1.00;;;;;10.01;59.78;100679.44;4996076;28;45385;-55
2022/03/13 07:41:45;;;;;;;;;3.00;3.00;;;;;10.00;59.70;100685.75;4995402;28;47009;-55
2022/03/13 07:44:11;;;;;;;;;1.00;1.00;;;;;10.02;59.88;100691.75;4995649;28;45265;-55
2022/03/13 07:46:37;;;;;;;;;5.00;2.33;;;;;10.04;59.39;100689.78;4995824;28;45547;-55
2022/03/13 07:49:03;;;;;;;;;4.33;2.00;;;;;9.95;58.93;100680.03;4995757;28;45589;-52
2022/03/13 07:51:29;;;;;;;;;2.67;2.67;;;;;10.01;59.51;100684.75;4995574;28;46104;-53
2022/03/13 07:53:54;;;;;;;;;4.67;2.67;;;;;10.06;59.77;100686.97;4995384;28;45207;-44
2022/03/13 07:56:20;;;;;;;;;2.33;2.33;;;;;10.05;59.79;100672.03;4995473;28;45421;-41
2022/03/13 07:58:45;;;;;;;;;2.33;2.33;;;;;10.08;59.36;100685.88;4995734;28;45295;-41
2022/03/13 08:01:11;;;;;;;;;5.00;2.67;;;;;10.06;58.97;100682.50;4995369;28;46039;-41
2022/03/13 08:03:36;;;;;;;;;4.33;2.00;;;;;10.13;59.61;100685.44;4995578;28;45293;-41
2022/03/13 08:06:03;;;;;;;;;5.67;2.67;;;;;10.08;58.84;100675.22;4995456;28;45425;-39
2022/03/13 08:08:28;;;;;;;;;4.00;2.67;;;;;10.15;58.22;100681.63;4995778;28;45461;-41
2022/03/13 08:10:54;;;;;;;;;8.33;3.00;;;;;10.15;58.79;100670.97;4995108;28;45992;-42
2022/03/13 08:13:19;;;;;;;;;3.00;2.00;;;;;10.20;58.61;100674.06;4995400;28;45387;-41
2022/03/13 08:15:45;;;;;;;;;2.00;2.00;;;;;10.21;58.36;100667.75;4995408;28;45406;-40
2022/03/13 08:18:12;;;;;;;;;3.00;2.67;;;;;10.14;58.10;100649.88;4995573;28;45354;-42
2022/03/13 08:20:37;;;;;;;;;3.00;2.33;;;;;10.29;58.76;100660.91;4995269;28;46256;-43
2022/03/13 08:23:03;;;;;;;;;3.00;1.00;;;;;10.45;58.37;100664.63;4994978;28;45410;-42
2022/03/13 08:25:28;;;;;;;;;2.33;2.00;;;;;10.66;57.85;100667.03;4995102;28;46106;-42
2022/03/13 08:27:54;;;;;;;;;3.00;2.33;;;;;10.92;57.02;100668.97;4995135;28;45537;-42
2022/03/13 08:30:20;;;;;;;;;1.67;1.67;;;;;11.18;56.81;100667.22;4994905;28;46986;-42
2022/03/13 08:32:45;;;;;;;;;6.00;4.33;;;;;12.44;54.23;100647.22;4994775;28;45337;-41
2022/03/13 08:35:11;;;;;;;;;2.33;2.33;;;;;14.01;51.23;100657.88;4995292;28;45408;-41
2022/03/13 08:37:37;;;;;;;;;1.00;1.00;;;;;15.01;47.33;100646.56;4995411;28;45487;-41
2022/03/13 08:40:04;;;;;;;;;1.00;1.00;;;;;14.54;47.42;100647.50;4994815;28;45410;-41
2022/03/13 08:42:32;;;;;;;;;4.00;2.67;;;;;14.65;47.84;100647.94;4994483;28;45318;-41
2022/03/13 08:44:57;;;;;;;;;2.00;2.00;;;;;14.85;47.58;100648.34;4994012;28;45393;-41
2022/03/13 08:47:23;;;;;;;;;2.00;2.00;;;;;15.28;46.67;100656.75;4995105;28;45571;-41
2022/03/13 08:49:50;;;;;;;;;3.33;2.67;;;;;15.73;46.75;100649.69;4994525;28;47167;-43
2022/03/13 08:52:16;;;;;;;;;3.00;3.00;;;;;16.15;44.82;100648.25;4994647;28;45392;-42
2022/03/13 08:54:41;;;;;;;;;2.33;2.33;;;;;16.65;42.29;100652.81;4994799;28;45469;-41
2022/03/13 08:57:07;;;;;;;;;3.00;2.00;;;;;17.22;42.36;100659.22;4994691;28;45386;-42
2022/03/13 08:59:37;;;;;;;;;1.00;1.00;;;;;18.40;41.24;100646.84;4994613;28;46986;-43
2022/03/13 09:02:03;;;;;;;;;3.00;2.67;;;;;19.52;38.21;100642.78;4993216;28;45413;-42
2022/03/13 09:04:29;;;;;;;;;2.33;2.00;;;;;20.08;37.18;100648.56;4994669;27;45255;-42
2022/03/13 09:06:55;;;;;;;;;2.00;2.00;;;;;21.13;35.30;100656.44;4994956;28;45340;-41
2022/03/13 09:09:20;;;;;;;;;0.00;0.00;;;;;21.89;34.02;100664.38;4994521;28;46304;-42
2022/03/13 09:11:47;;;;;;;;;0.50;0.50;;;;;21.38;35.94;100654.63;4994683;28;45468;-42
2022/03/13 09:14:13;;;;;;;;;2.00;1.00;;;;;20.77;33.58;100633.56;4994613;28;45407;-42
2022/03/13 09:16:40;;;;;;;;;1.00;1.00;;;;;20.00;34.63;100654.19;4994742;28;45383;-42
2022/03/13 09:19:05;;;;;;;;;1.50;1.50;;;;;19.06;36.17;100657.88;4994542;28;46048;-41
2022/03/13 09:21:31;;;;;;;;;2.25;1.50;;;;;18.58;36.85;100652.53;4994538;28;45477;-41
2022/03/13 09:23:57;;;;;;;;;1.75;1.75;;;;;18.66;36.61;100646.94;4994913;28;45340;-42
2022/03/13 09:26:23;;;;;;;;;2.75;1.75;;;;;17.73;38.10;100659.03;4994763;28;45416;-42
2022/03/13 09:28:49;;;;;;;;;1.00;1.00;;;;;16.94;39.57;100660.00;4994253;28;46317;-42
2022/03/13 09:31:14;;;;;;;;;2.00;1.00;;;;;16.71;40.28;100653.91;4994549;28;45378;-43
2022/03/13 09:33:39;;;;;;;;;4.67;2.00;;;;;17.06;40.02;100646.03;4994505;28;45181;-42
2022/03/13 09:36:05;;;;;;;;;2.00;2.00;;;;;16.93;39.88;100646.72;4994603;28;45357;-41
2022/03/13 09:38:32;;;;;;;;;2.00;2.00;;;;;16.36;40.64;100663.59;4994307;28;47141;-42
2022/03/13 09:40:57;;;;;;;;;2.00;2.00;;;;;15.69;41.80;100653.75;4994508;28;45368;-40
2022/03/13 09:43:23;;;;;;;;;0.00;0.00;;;;;15.16;42.73;100653.66;4994167;28;45376;-43
2022/03/13 09:45:49;;;;;;;;;3.00;1.00;;;;;14.93;44.06;100659.00;4994582;28;45372;-41
2022/03/13 09:48:18;;;;;;;;;1.67;1.33;;;;;14.83;44.24;100660.22;4994225;28;46082;-41
2022/03/13 09:50:45;;;;;;;;;3.33;2.33;;;;;14.69;44.35;100657.28;4994187;28;45400;-41
2022/03/13 09:53:11;;;;;;;;;1.00;1.00;;;;;14.62;45.26;100663.53;4994312;28;45275;-42
2022/03/13 09:55:37;;;;;;;;;2.33;2.33;;;;;14.40;45.34;100657.91;4993413;28;45417;-40
2022/03/13 09:58:05;;;;;;;;;3.00;2.00;;;;;14.18;45.57;100677.38;4993902;28;45471;-41
2022/03/13 10:00:31;;;;;;;;;3.67;2.33;;;;;13.91;46.24;100662.59;4994003;28;45346;-42
2022/03/13 10:02:57;;;;;;;;;3.00;3.00;;;;;13.66;47.15;100667.13;4994171;28;45356;-43
2022/03/13 10:05:24;;;;;;;;;2.00;2.00;;;;;13.50;48.19;100667.16;4994197;28;45313;-45
2022/03/13 10:08:00;;;;;;;;;3.00;3.00;;;;;13.32;47.64;100638.75;4994065;28;47284;-40
2022/03/13 10:10:30;;;;;;;;;7.00;3.00;;;;;13.46;47.54;100650.59;4993979;28;45363;-42
2022/03/13 10:12:56;;;;;;;;;3.00;1.00;;;;;13.40;47.12;100654.78;4993744;28;45604;-49
2022/03/13 10:15:21;;;;;;;;;3.00;2.00;;;;;13.29;47.82;100656.94;4994117;28;45453;-42
2022/03/13 10:17:48;;;;;;;;;2.33;2.33;;;;;13.25;48.11;100661.78;4993592;28;46417;-43
2022/03/13 10:20:23;;;;;;;;;2.67;2.67;;;;;13.14;48.36;100662.06;4993630;28;45393;-43
2022/03/13 10:22:57;;;;;;;;;5.33;2.00;;;;;13.03;49.14;100657.06;4994076;28;45291;-43
2022/03/13 10:25:34;;;;;;;;;4.00;3.67;;;;;12.94;49.15;100658.88;4994000;28;45460;-44
2022/03/13 10:28:22;;;;;;;;;4.00;3.00;;;;;12.87;49.26;100657.88;4993365;28;47213;-41
2022/03/13 10:31:00;;;;;;;;;4.00;2.67;;;;;12.82;49.30;100660.19;4996272;28;45447;-42
2022/03/13 10:33:27;;;;;;;;;3.00;2.00;;;;;12.74;49.29;100645.81;4993597;28;45389;-42
2022/03/13 10:36:21;;;;;;;;;3.00;1.67;;;;;12.68;49.25;100651.81;4993742;28;45432;-41
2022/03/13 10:38:48;;;;;;;;;4.67;3.33;;;;;12.65;49.26;100638.78;4992085;28;47349;-42
2022/03/13 10:41:14;;;;;;;;;4.00;4.00;;;;;12.61;50.13;100648.13;4993388;28;45334;-42
2022/03/13 10:43:51;;;;;;;;;4.67;2.00;;;;;12.58;50.36;100647.59;4993139;28;45152;-43
2022/03/13 10:46:29;;;;;;;;;3.00;3.00;;;;;12.53;50.24;100640.09;4993820;28;45264;-42
2022/03/13 10:48:56;;;;;;;;;6.00;2.67;;;;;12.58;50.13;100643.09;4993275;28;45401;-41
2022/03/13 10:51:45;;;;;;;;;1.33;1.33;;;;;12.63;49.98;100639.94;4993208;28;45336;-43
2022/03/13 10:54:28;;;;;;;;;2.00;2.00;;;;;12.64;50.18;100634.47;4993471;28;45492;-46
2022/03/13 10:57:11;;;;;;;;;2.00;2.00;;;;;12.61;50.28;100632.13;4993599;28;45256;-42
2022/03/13 10:59:39;;;;;;;;;0.67;0.67;;;;;12.63;50.39;100637.28;4993614;28;45448;-43
2022/03/13 11:02:21;;;;;;;;;2.67;2.00;;;;;12.63;50.25;100648.78;4993813;28;45421;-42
2022/03/13 11:04:52;;;;;;;;;6.00;1.33;;;;;12.43;50.10;100613.56;4994337;28;45322;-44
2022/03/13 11:07:20;;;;;;;;;2.00;2.00;;;;;12.68;50.16;100648.28;4996096;28;45327;-43
2022/03/13 11:09:45;;;;;;;;;1.00;1.00;;;;;12.65;49.74;100651.31;4996979;28;45486;-44
2022/03/13 11:12:20;;;;;;;;;4.00;1.67;;;;;12.63;48.92;100651.44;4997339;28;45383;-43
2022/03/13 11:14:48;;;;;;;;;2.67;2.67;;;;;12.57;49.95;100641.44;4996528;28;46061;-41
2022/03/13 11:17:15;;;;;;;;;3.67;2.00;;;;;12.61;50.20;100644.63;4997129;28;45444;-43
2022/03/13 11:19:41;;;;;;;;;1.67;1.67;;;;;12.63;49.56;100646.13;4997705;28;45209;-44
2022/03/13 11:22:09;;;;;;;;;4.33;3.00;;;;;12.63;49.98;100635.44;4996179;28;45318;-43
2022/03/13 11:24:36;;;;;;;;;2.33;2.00;;;;;12.67;50.14;100652.81;4997677;27;45392;-42